Time,TemperatureF,DewpointF,PressureIn,WindDirection,WindDirectionDegrees,WindSpeedMPH,WindSpeedGustMPH,Humidity,HourlyPrecipIn,Conditions,Clouds,dailyrainin,SoftwareType,DateUTC
2017-01-21 00:00:00,40.0,-99.9,-100.00,WSW,246,5.0,-999.0,-999,-99.99,,,-99.99,,2017-01-21 06:00:00,
2017-01-21 00:09:00,40.0,-99.9,-100.00,WSW,246,5.0,6.0,-999,-99.99,,,-99.99,,2017-01-21 06:09:00,
2017-01-21 00:18:00,40.0,-99.9,-100.00,WSW,249,5.0,8.0,-999,-99.99,,,-99.99,,2017-01-21 06:18:00,
2017-01-21 01:11:00,40.0,-99.9,-100.00,West,263,6.0,6.0,-999,-99.99,,,-99.99,,2017-01-21 07:11:00,
2017-01-21 01:19:00,40.0,-99.9,-100.00,WSW,240,4.0,6.0,-999,-99.99,,,-99.99,,2017-01-21 07:19:00,
2017-01-21 02:09:00,38.0,-99.9,-100.00,SW,224,4.0,6.0,-999,-99.99,,,-99.99,,2017-01-21 08:09:00,
2017-01-21 02:19:00,38.0,-99.9,-100.00,SW,224,4.0,6.0,-999,-99.99,,,-99.99,,2017-01-21 08:19:00,
2017-01-21 02:28:00,36.0,-99.9,-100.00,SW,218,5.0,6.0,-999,-99.99,,,-99.99,,2017-01-21 08:28:00,
2017-01-21 02:48:00,37.0,-99.9,-100.00,SW,214,4.0,-999.0,-999,-99.99,,,-99.99,,2017-01-21 08:48:00,
2017-01-21 03:00:00,36.0,-99.9,-100.00,SW,233,4.0,5.0,-999,-99.99,,,-99.99,,2017-01-21 09:00:00,
2017-01-21 03:11:00,36.0,-99.9,-100.00,SW,236,4.0,5.0,-999,-99.99,,,-99.99,,2017-01-21 09:11:00,
2017-01-21 03:19:00,36.0,-99.9,-100.00,SW,236,4.0,5.0,-999,-99.99,,,-99.99,,2017-01-21 09:19:00,
2017-01-21 03:27:00,36.0,-99.9,-100.00,SSW,204,3.0,5.0,-999,-99.99,,,-99.99,,2017-01-21 09:27:00,
2017-01-21 04:14:00,38.0,-99.9,-100.00,SW,226,5.0,6.0,-999,-99.99,,,-99.99,,2017-01-21 10:14:00,
2017-01-21 06:09:00,35.0,-99.9,-100.00,WSW,254,5.0,6.0,-999,-99.99,,,-99.99,,2017-01-21 12:09:00,
2017-01-21 06:18:00,35.0,-99.9,-100.00,WSW,254,5.0,6.0,-999,-99.99,,,-99.99,,2017-01-21 12:18:00,
2017-01-21 07:07:00,35.0,-99.9,-100.00,SW,224,5.0,7.0,-999,-99.99,,,-99.99,,2017-01-21 13:07:00,
2017-01-21 07:21:00,35.0,-99.9,-100.00,SW,215,6.0,8.0,-999,-99.99,,,-99.99,,2017-01-21 13:21:00,
2017-01-21 07:40:00,34.0,-99.9,-100.00,WSW,240,-999.9,-999.0,-999,-99.99,,,-99.99,,2017-01-21 13:40:00,
2017-01-21 08:09:00,34.0,-99.9,-100.00,WSW,245,6.0,9.0,-999,-99.99,,,-99.99,,2017-01-21 14:09:00,
2017-01-21 08:18:00,34.0,-99.9,-100.00,WSW,245,6.0,9.0,-999,-99.99,,,-99.99,,2017-01-21 14:18:00,
2017-01-21 09:05:00,36.0,-99.9,-100.00,West,260,5.0,-999.0,-999,-99.99,,,-99.99,,2017-01-21 15:05:00,
2017-01-21 09:18:00,36.0,-99.9,-100.00,West,260,5.0,6.0,-999,-99.99,,,-99.99,,2017-01-21 15:18:00,
2017-01-21 09:26:00,36.0,-99.9,-100.00,West,269,4.0,6.0,-999,-99.99,,,-99.99,,2017-01-21 15:26:00,
2017-01-21 10:28:00,39.0,-99.9,-100.00,West,269,8.0,10.0,-999,-99.99,,,-99.99,,2017-01-21 16:28:00,
2017-01-21 11:10:00,43.0,-99.9,-100.00,West,275,8.0,10.0,-999,-99.99,,,-99.99,,2017-01-21 17:10:00,
2017-01-21 12:10:00,51.0,-99.9,-100.00,SSW,200,1.0,4.0,-999,-99.99,,,-99.99,,2017-01-21 18:10:00,
2017-01-21 12:18:00,46.0,-99.9,-100.00,West,268,7.0,8.0,-999,-99.99,,,-99.99,,2017-01-21 18:18:00,
2017-01-21 13:01:00,51.0,-99.9,-100.00,SSW,200,1.0,4.0,-999,-99.99,,,-99.99,,2017-01-21 19:01:00,
2017-01-21 14:11:00,54.0,-99.9,-100.00,SSW,203,10.0,11.0,-999,-99.99,,,-99.99,,2017-01-21 20:11:00,
2017-01-21 14:18:00,54.0,-99.9,-100.00,SSW,203,10.0,11.0,-999,-99.99,,,-99.99,,2017-01-21 20:18:00,
2017-01-21 15:10:00,54.0,-99.9,-100.00,SW,222,4.0,9.0,-999,-99.99,,,-99.99,,2017-01-21 21:10:00,
2017-01-21 15:19:00,54.0,-99.9,-100.00,SW,222,4.0,9.0,-999,-99.99,,,-99.99,,2017-01-21 21:19:00,
2017-01-21 17:07:00,54.0,-99.9,-100.00,WNW,285,3.0,4.0,-999,-99.99,,,-99.99,,2017-01-21 23:07:00,
2017-01-21 17:26:00,54.0,-99.9,-100.00,West,277,2.0,4.0,-999,-99.99,,,-99.99,,2017-01-21 23:26:00,
2017-01-21 18:02:00,54.0,-99.9,-100.00,North,-9999,0.0,0.0,-999,-99.99,,,-99.99,,2017-01-22 00:02:00,
2017-01-21 18:10:00,54.0,-99.9,-100.00,North,-9999,0.0,0.0,-999,-99.99,,,-99.99,,2017-01-22 00:10:00,
2017-01-21 18:17:00,53.0,-99.9,-100.00,North,-9999,0.0,0.0,-999,-99.99,,,-99.99,,2017-01-22 00:17:00,
2017-01-21 19:17:00,45.0,-99.9,-100.00,NNE,18,4.0,4.0,-999,-99.99,,,-99.99,,2017-01-22 01:17:00,
2017-01-21 19:40:00,43.0,-99.9,-100.00,NE,35,3.0,3.0,-999,-99.99,,,-99.99,,2017-01-22 01:40:00,
2017-01-21 20:09:00,41.0,-99.9,-100.00,NNE,32,4.0,5.0,-999,-99.99,,,-99.99,,2017-01-22 02:09:00,
2017-01-21 20:18:00,41.0,-99.9,-100.00,NNE,32,4.0,5.0,-999,-99.99,,,-99.99,,2017-01-22 02:18:00,